My Meet Scores
Kathleen Saviski, Dreams Gymnastics Club Inc. - MyMeetScores.com
Top100 | Top Teams | Upcoming Meets | Completed Meets | Latest | Add Scores | Help| Support | Bookmark and Share

Kathleen Saviski, Dreams Gymnastics Club Inc.
Personal Bests
LevelVault BarsBeamFloorAA
48.3759.150 9.5759.12536.200
59.4259.525 9.7009.65037.650
XB8.7509.550 9.5259.55037.375
AllLevels9.2009.500 9.0759.20036.975
Meet Scores
Date Meet Team Session Level Division Vault Bars Beam Floor AA
2019-03-22 Illinois Gymnastics State Championships Dreams Gymnastics Club Inc. 1 5 JR E 9.425 4T 9.375 2 9.550 1 9.300 6 37.650 1T
2019-03-08 Lucky Invite Dreams Gymnastics Club Inc. A07 5 Jr B 9.250 2 8.500 5 9.700 1 9.550 1 37.000 2
2019-02-23 Kinetic Classic 2019 Dreams Gymnastics Club Inc. 1 5 Middle 8.500 9T 9.225 1 9.100 1 9.100 1 35.925 1
2019-02-08 IGI Chicago Style 2019 Dreams Gymnastics Club Inc. 48 5 632 LaSalle L5 B 9.375 3 9.400 1 9.300 2 9.225 4 37.300 1
2019-02-01 St. Valentines Classic Dreams Gymnastics Club Inc. 4A 5 10 yrs. 9.100 1 9.475 1 9.350 1 9.400 2 37.325 1
2019-01-18 2019 Bravo Classic Dreams Gymnastics Club Inc. 2A 5 Jr 8.675 11 9.000 10 9.550 1T 9.650 2 36.875 3
2019-01-11 St Jude Benefit Meet Dreams Gymnastics Club Inc. 9A 5 Jr B 9.100 6 9.200 2 9.650 1 9.400 2 37.350 1
2018-12-07 St. Nick Invite 2018 Dreams Gymnastics Club Inc. 1 5 JrB 8.700 6T 9.100 3 9.500 1 9.425 1 36.725 4
2018-03-08 Level 4 & 5 State Dreams Gymnastics Club Inc. All 5 Ch B 9.000 18T 8.900 9 9.325 8T 9.125 10 36.350 8T
2018-02-23 Kinetic Classic Dreams Gymnastics Club Inc. 8 5 Younger 8.400 65T 8.300 73T 9.300 22T 9.275 31T 35.275 54
2018-02-09 IGI Chicago Style Gymnastics Meet Dreams Gymnastics Club Inc. 26 5 222 Lake Shore Dr L5 A 9.250 9 8.600 13 9.625 6 9.350 7 36.825 8
2018-01-19 2018 Bravo Classic Dreams Gymnastics Club Inc. 3B 5 Child 9.050 16 9.050 8 9.650 1 9.075 9 36.825 6
2018-01-12 St Jude Benefit Meet Dreams Gymnastics Club Inc. 8A 5 JrA 9.100 8T 9.525 1 9.600 2 8.925 5 37.150 3T
2017-12-08 St. Nick Invite Dreams Gymnastics Club Inc. 4 5 JrA 8.950 11 9.300 3T 9.450 7T 9.275 7 36.975 5
2017-03-10 2017 Illinois Level 4 State Championships Dreams Gymnastics Club Inc. 2 4 Ch D 8.375 26 9.125 9T 9.575 3 9.125 6 36.200 11
2017-02-10 IGI Chicago Style Gymnastics Meet Dreams Gymnastics Club Inc. 632L 4 JrA 8.275 18 8.750 12 9.050 12 8.550 16 34.625 15
2017-02-03 St. Valentines Classic Womens Dreams Gymnastics Club Inc. 3A 4 7-9 yrs. 7.950 21T 8.600 20 9.350 4T 8.975 7 34.875 13
2017-01-13 St Jude Benefit Meet Dreams Gymnastics Club Inc. 5A 4 Jr A 8.025 11 8.650 8 9.250 5 8.850 4 34.775 5
2016-12-09 St. Nick Invite Dreams Gymnastics Club Inc. 6 4 Junior 8.250 19T 9.150 9T 9.425 6 8.800 17 35.625 11
2016-11-11 2016 Illinois Judges Cup Dreams Gymnastics Club Inc. R3 4 8 and Unde 7.650 8 8.925 1 8.350 5 9.000 1T 33.925 2
2016-02-05 St. Valentines Classic IK Gymnastics 4B AllLevels All Ages 9.200 18T 9.500 4T 9.075 28T 9.200 6T 36.975 7
2015-12-04 2015 Ultimate Wish Classic IK Gymnastics 5 XB All 8.750 4 9.550 3 9.525 1 9.550 1 37.375 2
Get your scores on
a t-shirt, pin, or hoodie

Order by December 13

www.lazysuits.com